Time;durP1;ratioP1;P1;durP2;ratioP2;P2;SDS_P1;SDS_P2;PMS_P1;PMS_P2;Temp;Humidity;BMP_temperature;BMP_pressure;BME280_temperature;BME280_humidity;BME280_pressure;Samples;Min_cycle;Max_cycle;Signal;HPM_P1;HPM_P2
2023/12/18 00:00:54;;;;;;;14.45;7.10;;;;;;;;;;5046098;28;20110;-91
2023/12/18 00:03:21;;;;;;;11.85;6.38;;;;;;;;;;5038903;28;20048;-92
2023/12/18 00:05:48;;;;;;;13.30;7.05;;;;;;;;;;5059979;28;20053;-92
2023/12/18 00:08:16;;;;;;;10.45;6.65;;;;;;;;;;5038185;28;20049;-91
2023/12/18 00:10:43;;;;;;;12.40;6.97;;;;;;;;;;5052305;28;20052;-92
2023/12/18 00:13:10;;;;;;;15.18;7.18;;;;;;;;;;5036372;28;20045;-92
2023/12/18 00:15:38;;;;;;;9.80;6.72;;;;;;;;;;5043816;28;20103;-93
2023/12/18 00:18:05;;;;;;;17.65;9.13;;;;;;;;;;5060079;28;20088;-92
2023/12/18 00:20:32;;;;;;;17.33;9.00;;;;;;;;;;5059938;28;20458;-93
2023/12/18 00:23:00;;;;;;;14.07;8.23;;;;;;;;;;5060485;28;20057;-92
2023/12/18 00:25:27;;;;;;;16.05;8.52;;;;;;;;;;5060095;28;20551;-92
2023/12/18 00:27:54;;;;;;;16.77;8.75;;;;;;;;;;5058752;28;20083;-91
2023/12/18 00:30:22;;;;;;;16.60;9.20;;;;;;;;;;5043562;28;20049;-93
2023/12/18 00:32:49;;;;;;;17.27;9.70;;;;;;;;;;5058808;28;20059;-93
2023/12/18 00:35:16;;;;;;;20.55;9.80;;;;;;;;;;5043557;28;20447;-93
2023/12/18 00:37:44;;;;;;;19.83;9.45;;;;;;;;;;5059741;28;20056;-93
2023/12/18 00:40:11;;;;;;;19.13;10.15;;;;;;;;;;5044004;28;20053;-93
2023/12/18 00:42:38;;;;;;;18.60;10.25;;;;;;;;;;5046655;28;20079;-92
2023/12/18 00:45:06;;;;;;;20.55;10.35;;;;;;;;;;5058487;28;20063;-93
2023/12/18 00:47:33;;;;;;;20.92;11.35;;;;;;;;;;5076042;28;20038;-92
2023/12/18 00:50:01;;;;;;;24.27;13.57;;;;;;;;;;5060503;28;20125;-93
2023/12/18 00:52:32;;;;;;;27.50;13.23;;;;;;;;;;5046019;28;20547;-93
2023/12/18 00:54:59;;;;;;;27.42;13.43;;;;;;;;;;5045520;28;20114;-93
2023/12/18 00:57:26;;;;;;;20.48;10.35;;;;;;;;;;5053096;28;20049;-91
2023/12/18 00:59:54;;;;;;;19.13;10.10;;;;;;;;;;5058920;28;20061;-93
2023/12/18 01:02:21;;;;;;;14.50;8.55;;;;;;;;;;5045727;28;20052;-92
2023/12/18 01:04:48;;;;;;;15.23;6.95;;;;;;;;;;5033963;28;20061;-92
2023/12/18 01:07:15;;;;;;;14.75;8.32;;;;;;;;;;5061888;28;20057;-92
2023/12/18 01:09:43;;;;;;;18.92;8.65;;;;;;;;;;5045039;28;20056;-93
2023/12/18 01:12:10;;;;;;;21.25;9.23;;;;;;;;;;5058625;28;20553;-92
2023/12/18 01:14:37;;;;;;;13.45;8.88;;;;;;;;;;5058748;28;20067;-92
2023/12/18 01:17:05;;;;;;;17.27;8.60;;;;;;;;;;5060201;28;20077;-93
2023/12/18 01:19:32;;;;;;;17.35;9.60;;;;;;;;;;5045821;28;20045;-93
2023/12/18 01:21:59;;;;;;;22.60;10.38;;;;;;;;;;5040257;28;20498;-92
2023/12/18 01:24:27;;;;;;;15.57;8.85;;;;;;;;;;5058943;28;20054;-92
2023/12/18 01:26:55;;;;;;;15.48;9.00;;;;;;;;;;5058246;28;20053;-93
2023/12/18 01:29:22;;;;;;;17.63;10.60;;;;;;;;;;5029469;28;20048;-93
2023/12/18 01:31:49;;;;;;;19.30;10.65;;;;;;;;;;5042220;28;20077;-92
2023/12/18 01:34:16;;;;;;;19.45;11.07;;;;;;;;;;5042162;28;20544;-94
2023/12/18 01:36:43;;;;;;;23.23;11.73;;;;;;;;;;5059765;28;20131;-92
2023/12/18 01:39:11;;;;;;;23.80;9.80;;;;;;;;;;5063106;28;20046;-93
2023/12/18 01:41:38;;;;;;;18.30;9.82;;;;;;;;;;5037705;28;20103;-92
2023/12/18 01:44:05;;;;;;;19.65;10.38;;;;;;;;;;5060196;28;20045;-92
2023/12/18 01:46:34;;;;;;;19.65;12.05;;;;;;;;;;5039916;28;20073;-92
2023/12/18 01:49:02;;;;;;;18.77;12.05;;;;;;;;;;5040637;28;20099;-92
2023/12/18 01:51:30;;;;;;;19.90;12.82;;;;;;;;;;5045604;28;20094;-93
2023/12/18 01:53:57;;;;;;;24.92;13.98;;;;;;;;;;5041210;28;20061;-93
2023/12/18 01:56:27;;;;;;;12.60;9.80;;;;;;;;;;5048039;28;20052;-93
2023/12/18 01:58:55;;;;;;;22.00;12.40;;;;;;;;;;5046649;28;20068;-93
2023/12/18 02:01:23;;;;;;;14.88;10.82;;;;;;;;;;5080712;28;20056;-92
2023/12/18 02:03:51;;;;;;;14.90;9.20;;;;;;;;;;5066673;28;20496;-94
2023/12/18 02:06:19;;;;;;;11.02;8.38;;;;;;;;;;5036939;28;20409;-94
2023/12/18 02:08:46;;;;;;;9.30;7.32;;;;;;;;;;5042685;28;20522;-93
2023/12/18 02:11:14;;;;;;;8.30;6.03;;;;;;;;;;5058687;28;20053;-95
2023/12/18 02:13:41;;;;;;;6.78;5.72;;;;;;;;;;5044770;28;20049;-94
2023/12/18 02:16:09;;;;;;;6.30;5.45;;;;;;;;;;5060120;28;20057;-93
2023/12/18 02:18:43;;;;;;;6.40;5.55;;;;;;;;;;5044628;28;20048;-94
2023/12/18 02:21:10;;;;;;;4.97;4.22;;;;;;;;;;5042206;28;20140;-93
2023/12/18 02:23:37;;;;;;;5.25;4.72;;;;;;;;;;5063238;28;20056;-93
2023/12/18 02:26:04;;;;;;;5.85;5.00;;;;;;;;;;5043130;28;20107;-93
2023/12/18 02:28:32;;;;;;;5.05;4.47;;;;;;;;;;5057237;28;20057;-92
2023/12/18 02:30:59;;;;;;;4.70;4.15;;;;;;;;;;5058371;28;20076;-93
2023/12/18 02:33:27;;;;;;;4.07;3.70;;;;;;;;;;5047735;28;20057;-93
2023/12/18 02:35:56;;;;;;;4.85;4.18;;;;;;;;;;5057277;28;20054;-94
2023/12/18 02:38:23;;;;;;;4.30;3.92;;;;;;;;;;5048540;28;20050;-94
2023/12/18 02:40:50;;;;;;;4.47;4.07;;;;;;;;;;5055968;28;20053;-92
2023/12/18 02:43:18;;;;;;;6.72;4.78;;;;;;;;;;5057237;28;20149;-93
2023/12/18 02:45:45;;;;;;;4.30;3.90;;;;;;;;;;5057613;28;20077;-93
2023/12/18 02:48:12;;;;;;;5.70;4.25;;;;;;;;;;5059331;28;20091;-92
2023/12/18 02:50:40;;;;;;;4.63;4.18;;;;;;;;;;5044386;28;20055;-93
2023/12/18 02:53:07;;;;;;;6.22;4.70;;;;;;;;;;5042229;28;20162;-94
2023/12/18 02:55:34;;;;;;;4.05;3.63;;;;;;;;;;5035407;28;20049;-93
2023/12/18 02:58:02;;;;;;;4.70;3.95;;;;;;;;;;5048691;28;20057;-93
2023/12/18 03:00:29;;;;;;;5.53;4.25;;;;;;;;;;5034375;28;20108;-92
2023/12/18 03:02:56;;;;;;;4.47;3.63;;;;;;;;;;5047058;28;20053;-91
2023/12/18 03:05:24;;;;;;;4.22;3.83;;;;;;;;;;5043600;28;20046;-93
2023/12/18 03:07:51;;;;;;;4.95;4.03;;;;;;;;;;5057121;28;20569;-93
2023/12/18 03:10:18;;;;;;;4.80;4.18;;;;;;;;;;5042926;28;20057;-92
2023/12/18 03:12:45;;;;;;;4.38;3.88;;;;;;;;;;5038789;28;20080;-92
2023/12/18 03:15:13;;;;;;;6.45;4.45;;;;;;;;;;5067564;28;20033;-93
2023/12/18 03:17:40;;;;;;;4.15;3.78;;;;;;;;;;5063905;28;20058;-92
2023/12/18 03:20:08;;;;;;;3.95;3.53;;;;;;;;;;5066246;28;20053;-92
2023/12/18 03:22:36;;;;;;;4.13;3.47;;;;;;;;;;5041934;28;20481;-93
2023/12/18 03:25:03;;;;;;;4.10;3.67;;;;;;;;;;5044402;28;20428;-94
2023/12/18 03:27:30;;;;;;;5.28;3.97;;;;;;;;;;5046101;28;20045;-92
2023/12/18 03:29:58;;;;;;;4.68;3.90;;;;;;;;;;5060245;28;20052;-92
2023/12/18 03:32:25;;;;;;;4.07;3.63;;;;;;;;;;5053557;28;20220;-92
2023/12/18 03:34:52;;;;;;;5.72;4.43;;;;;;;;;;5044456;28;20129;-93
2023/12/18 03:37:19;;;;;;;4.32;3.88;;;;;;;;;;5052626;28;20485;-93
2023/12/18 03:39:47;;;;;;;6.72;4.07;;;;;;;;;;5043297;28;20060;-93
2023/12/18 03:42:14;;;;;;;5.55;4.55;;;;;;;;;;5046518;28;20140;-93
2023/12/18 03:44:43;;;;;;;5.45;3.72;;;;;;;;;;5042541;28;20484;-92
2023/12/18 03:47:11;;;;;;;7.32;5.13;;;;;;;;;;5045359;28;20064;-94
2023/12/18 03:49:38;;;;;;;5.85;4.45;;;;;;;;;;5058461;28;20049;-94
2023/12/18 03:52:05;;;;;;;4.65;4.00;;;;;;;;;;5046028;28;20327;-92
2023/12/18 03:54:32;;;;;;;6.97;4.80;;;;;;;;;;5057535;28;20489;-92
2023/12/18 03:57:00;;;;;;;5.50;4.45;;;;;;;;;;5046576;28;20098;-93
2023/12/18 03:59:27;;;;;;;4.20;3.80;;;;;;;;;;5057114;28;20055;-92
2023/12/18 04:01:54;;;;;;;4.38;3.90;;;;;;;;;;5047363;28;20447;-93
2023/12/18 04:04:21;;;;;;;5.32;4.30;;;;;;;;;;5043518;28;20100;-93
2023/12/18 04:06:49;;;;;;;4.97;4.40;;;;;;;;;;5055913;28;20048;-92
2023/12/18 04:09:16;;;;;;;4.13;3.83;;;;;;;;;;5043691;28;20068;-94
2023/12/18 04:11:43;;;;;;;6.03;5.13;;;;;;;;;;5058724;28;20060;-93
2023/12/18 04:14:10;;;;;;;5.50;4.63;;;;;;;;;;5044935;28;20068;-93
2023/12/18 04:16:38;;;;;;;7.63;5.13;;;;;;;;;;5061637;28;20049;-93
2023/12/18 04:19:06;;;;;;;5.10;4.60;;;;;;;;;;5050185;28;20057;-91
2023/12/18 04:21:34;;;;;;;4.95;4.43;;;;;;;;;;5040231;28;20057;-92
2023/12/18 04:24:01;;;;;;;5.05;4.20;;;;;;;;;;5046025;28;20061;-92
2023/12/18 04:26:29;;;;;;;4.63;4.22;;;;;;;;;;5061793;28;20049;-94
2023/12/18 04:28:56;;;;;;;4.60;4.20;;;;;;;;;;5066303;28;20471;-93
2023/12/18 04:31:23;;;;;;;3.90;3.70;;;;;;;;;;5077820;28;20060;-92
2023/12/18 04:33:50;;;;;;;4.60;4.20;;;;;;;;;;5084115;28;20059;-93
2023/12/18 04:36:18;;;;;;;4.00;3.78;;;;;;;;;;5043301;28;20563;-91
2023/12/18 04:38:47;;;;;;;4.38;3.95;;;;;;;;;;5064548;28;20068;-94
2023/12/18 04:41:19;;;;;;;4.00;3.70;;;;;;;;;;5038432;28;20061;-92
2023/12/18 04:43:47;;;;;;;3.85;3.55;;;;;;;;;;5031740;28;20060;-93
2023/12/18 04:46:14;;;;;;;4.47;4.00;;;;;;;;;;5059126;28;20080;-95
2023/12/18 04:48:42;;;;;;;4.32;3.92;;;;;;;;;;5060571;28;20050;-93
2023/12/18 04:51:10;;;;;;;4.13;3.83;;;;;;;;;;5063702;28;20045;-95
2023/12/18 04:53:37;;;;;;;4.20;3.85;;;;;;;;;;5041482;28;20489;-94
2023/12/18 04:56:05;;;;;;;5.07;4.57;;;;;;;;;;5046783;28;20103;-94
2023/12/18 04:58:35;;;;;;;4.63;4.22;;;;;;;;;;5066155;28;20551;-94
2023/12/18 05:01:03;;;;;;;4.93;3.92;;;;;;;;;;5046317;28;20054;-93
2023/12/18 05:03:30;;;;;;;4.25;3.90;;;;;;;;;;5045836;28;20143;-91
2023/12/18 05:05:58;;;;;;;4.55;4.07;;;;;;;;;;5045223;28;20241;-91
2023/12/18 05:08:25;;;;;;;4.20;3.90;;;;;;;;;;5059212;28;20072;-92
2023/12/18 05:10:52;;;;;;;4.80;4.40;;;;;;;;;;5036929;28;20045;-93
2023/12/18 05:13:20;;;;;;;5.75;5.25;;;;;;;;;;5035620;28;20099;-91
2023/12/18 05:15:47;;;;;;;5.80;5.20;;;;;;;;;;5042240;28;20085;-92
2023/12/18 05:18:14;;;;;;;5.78;5.25;;;;;;;;;;5026983;28;20409;-92
2023/12/18 05:20:42;;;;;;;4.75;4.35;;;;;;;;;;5058301;28;20110;-92
2023/12/18 05:23:09;;;;;;;4.65;4.25;;;;;;;;;;5042959;28;20107;-93
2023/12/18 05:25:36;;;;;;;5.38;4.60;;;;;;;;;;5040248;28;20084;-93
2023/12/18 05:28:04;;;;;;;5.00;4.60;;;;;;;;;;5045055;28;20041;-93
2023/12/18 05:30:34;;;;;;;5.00;4.57;;;;;;;;;;5059191;28;20060;-93
2023/12/18 05:33:02;;;;;;;4.93;4.53;;;;;;;;;;5060907;28;20049;-92
2023/12/18 05:35:30;;;;;;;5.78;5.18;;;;;;;;;;5036589;28;20046;-93
2023/12/18 05:37:57;;;;;;;5.65;4.95;;;;;;;;;;5059063;28;20084;-92
2023/12/18 05:40:24;;;;;;;5.95;5.35;;;;;;;;;;5043328;28;20494;-93
2023/12/18 05:42:51;;;;;;;5.18;4.68;;;;;;;;;;5043161;28;20053;-93
2023/12/18 05:45:19;;;;;;;6.03;5.43;;;;;;;;;;5049711;28;20037;-91
2023/12/18 05:47:46;;;;;;;6.45;5.57;;;;;;;;;;5069294;28;20029;-91
2023/12/18 05:50:14;;;;;;;5.93;5.40;;;;;;;;;;5060276;28;20191;-92
2023/12/18 05:52:41;;;;;;;7.15;6.10;;;;;;;;;;5044062;28;20064;-93
2023/12/18 05:55:10;;;;;;;7.32;5.90;;;;;;;;;;5056023;28;20060;-91
2023/12/18 05:57:41;;;;;;;7.32;6.43;;;;;;;;;;5046995;28;20049;-91
2023/12/18 06:00:11;;;;;;;8.63;5.75;;;;;;;;;;5038291;28;20501;-92
2023/12/18 06:02:38;;;;;;;6.60;5.85;;;;;;;;;;5030550;28;20045;-92
2023/12/18 06:05:06;;;;;;;7.63;5.90;;;;;;;;;;5054362;28;20080;-92
2023/12/18 06:07:33;;;;;;;7.40;6.28;;;;;;;;;;5033719;28;20450;-92
2023/12/18 06:10:03;;;;;;;7.50;6.07;;;;;;;;;;5036799;28;20061;-92
2023/12/18 06:12:30;;;;;;;6.30;5.60;;;;;;;;;;5038213;28;20044;-92
2023/12/18 06:14:57;;;;;;;8.77;5.65;;;;;;;;;;5044276;28;20064;-93
2023/12/18 06:17:25;;;;;;;7.10;5.60;;;;;;;;;;5042087;28;20088;-93
2023/12/18 06:19:52;;;;;;;7.43;6.30;;;;;;;;;;5058031;28;20490;-93
2023/12/18 06:22:20;;;;;;;10.10;7.50;;;;;;;;;;5053773;28;20069;-92
2023/12/18 06:24:47;;;;;;;31.25;19.58;;;;;;;;;;5038180;28;20107;-92
2023/12/18 06:27:14;;;;;;;10.73;8.82;;;;;;;;;;5049818;28;20056;-92
2023/12/18 06:29:43;;;;;;;24.48;16.00;;;;;;;;;;5062082;28;20064;-92
2023/12/18 06:32:12;;;;;;;17.77;12.57;;;;;;;;;;5039066;28;20049;-93
2023/12/18 06:34:41;;;;;;;12.55;9.65;;;;;;;;;;5046141;28;20087;-92
2023/12/18 06:37:08;;;;;;;12.65;9.60;;;;;;;;;;5028346;28;20054;-92
2023/12/18 06:39:36;;;;;;;16.90;11.68;;;;;;;;;;5055741;28;20053;-91
2023/12/18 06:42:03;;;;;;;16.48;11.15;;;;;;;;;;5060708;28;20044;-96
2023/12/18 06:44:31;;;;;;;14.85;11.82;;;;;;;;;;5057412;28;20482;-93
2023/12/18 06:46:59;;;;;;;18.02;13.27;;;;;;;;;;5060579;28;20505;-93
2023/12/18 06:49:26;;;;;;;14.93;11.90;;;;;;;;;;5041684;28;20049;-91
2023/12/18 06:51:54;;;;;;;18.05;12.32;;;;;;;;;;5060792;28;20049;-91
2023/12/18 06:54:21;;;;;;;21.98;15.68;;;;;;;;;;5038301;28;20292;-92
2023/12/18 06:56:48;;;;;;;15.73;13.35;;;;;;;;;;5058169;28;20058;-93
2023/12/18 06:59:15;;;;;;;14.63;10.05;;;;;;;;;;5069421;28;20053;-91
2023/12/18 07:01:43;;;;;;;11.23;9.60;;;;;;;;;;5061600;28;20052;-92
2023/12/18 07:04:10;;;;;;;13.00;10.60;;;;;;;;;;5049855;28;20472;-93
2023/12/18 07:06:37;;;;;;;12.75;9.88;;;;;;;;;;5036370;28;20048;-89
2023/12/18 07:09:05;;;;;;;12.63;9.55;;;;;;;;;;5041905;28;20095;-91
2023/12/18 07:11:32;;;;;;;10.00;8.77;;;;;;;;;;5055478;28;20060;-92
2023/12/18 07:13:59;;;;;;;14.07;9.57;;;;;;;;;;5042010;28;20048;-93
2023/12/18 07:16:28;;;;;;;12.52;9.27;;;;;;;;;;5056775;28;20501;-92
2023/12/18 07:18:56;;;;;;;10.95;8.98;;;;;;;;;;5056312;28;20436;-92
2023/12/18 07:21:23;;;;;;;10.25;9.13;;;;;;;;;;5033971;28;20383;-92
2023/12/18 07:23:50;;;;;;;10.55;8.60;;;;;;;;;;5040820;28;20400;-93
2023/12/18 07:26:18;;;;;;;10.60;8.63;;;;;;;;;;5060891;28;20476;-92
2023/12/18 07:28:45;;;;;;;10.45;8.40;;;;;;;;;;5028924;28;20516;-91
2023/12/18 07:31:13;;;;;;;10.25;8.95;;;;;;;;;;5045077;28;20108;-91
2023/12/18 07:33:40;;;;;;;9.77;8.13;;;;;;;;;;5044363;28;20049;-94
2023/12/18 07:36:08;;;;;;;11.20;8.57;;;;;;;;;;5044230;28;20057;-91
2023/12/18 07:38:35;;;;;;;11.63;9.18;;;;;;;;;;5044247;28;20045;-92
2023/12/18 07:41:03;;;;;;;10.40;8.75;;;;;;;;;;5043070;28;20045;-91
2023/12/18 07:43:30;;;;;;;10.55;8.82;;;;;;;;;;5057455;28;20137;-92
2023/12/18 07:45:57;;;;;;;13.27;9.85;;;;;;;;;;5057810;28;20438;-91
2023/12/18 07:48:25;;;;;;;11.38;9.43;;;;;;;;;;5035620;28;20060;-92
2023/12/18 07:50:53;;;;;;;10.80;9.05;;;;;;;;;;5041620;28;20061;-92
2023/12/18 07:53:20;;;;;;;12.10;9.57;;;;;;;;;;5060730;28;20052;-93
2023/12/18 07:55:47;;;;;;;12.00;9.32;;;;;;;;;;5044359;28;20464;-92
2023/12/18 07:58:16;;;;;;;14.18;9.70;;;;;;;;;;5041152;28;20128;-93
2023/12/18 08:00:43;;;;;;;12.70;9.77;;;;;;;;;;5057425;28;20054;-92
2023/12/18 08:03:10;;;;;;;11.75;9.95;;;;;;;;;;5059745;28;20076;-93
2023/12/18 08:05:38;;;;;;;13.50;10.40;;;;;;;;;;5044502;28;20056;-92
2023/12/18 08:08:05;;;;;;;12.35;10.30;;;;;;;;;;5046405;28;20065;-92
2023/12/18 08:10:33;;;;;;;13.82;11.13;;;;;;;;;;5050308;28;20045;-91
2023/12/18 08:13:00;;;;;;;12.82;10.50;;;;;;;;;;5055020;28;20028;-92
2023/12/18 08:15:27;;;;;;;12.50;10.88;;;;;;;;;;5067525;28;20101;-92
2023/12/18 08:17:55;;;;;;;14.75;11.18;;;;;;;;;;5063779;28;20061;-91
2023/12/18 08:20:22;;;;;;;16.15;11.95;;;;;;;;;;5049271;28;20056;-94
2023/12/18 08:22:49;;;;;;;13.45;10.73;;;;;;;;;;5047275;28;20049;-93
2023/12/18 08:25:18;;;;;;;15.35;12.20;;;;;;;;;;5044238;28;20049;-93
2023/12/18 08:27:45;;;;;;;14.50;10.70;;;;;;;;;;5060755;28;20050;-92
2023/12/18 08:30:13;;;;;;;13.82;10.63;;;;;;;;;;5046640;28;20135;-92
2023/12/18 08:32:40;;;;;;;14.90;11.57;;;;;;;;;;5047273;28;20045;-91
2023/12/18 08:35:08;;;;;;;12.27;10.70;;;;;;;;;;5045991;28;20088;-90
2023/12/18 08:37:35;;;;;;;14.18;10.20;;;;;;;;;;5060240;28;20053;-91
2023/12/18 08:40:02;;;;;;;11.98;9.70;;;;;;;;;;5045768;28;20548;-92
2023/12/18 08:42:30;;;;;;;11.13;9.70;;;;;;;;;;5047241;28;20055;-92
2023/12/18 08:44:57;;;;;;;12.63;10.10;;;;;;;;;;5063627;28;20044;-91
2023/12/18 08:47:24;;;;;;;11.55;10.15;;;;;;;;;;5060534;28;20046;-90
2023/12/18 08:49:52;;;;;;;14.02;10.88;;;;;;;;;;5062020;28;20144;-91
2023/12/18 08:52:19;;;;;;;11.60;9.93;;;;;;;;;;5023664;28;20056;-93
2023/12/18 08:54:46;;;;;;;12.93;10.88;;;;;;;;;;5048142;28;20374;-91
2023/12/18 08:57:14;;;;;;;13.95;9.63;;;;;;;;;;5044625;28;20123;-92
2023/12/18 08:59:41;;;;;;;11.73;10.38;;;;;;;;;;5044227;28;20404;-91
2023/12/18 09:02:09;;;;;;;13.77;10.95;;;;;;;;;;5046552;28;20088;-92
2023/12/18 09:04:37;;;;;;;12.88;10.10;;;;;;;;;;5046622;28;20072;-92
2023/12/18 09:07:04;;;;;;;12.43;9.80;;;;;;;;;;5045134;28;20079;-92
2023/12/18 09:09:31;;;;;;;11.10;9.57;;;;;;;;;;5059796;28;20050;-92
2023/12/18 09:11:59;;;;;;;10.82;9.45;;;;;;;;;;5044916;28;20421;-92
2023/12/18 09:14:26;;;;;;;12.38;9.52;;;;;;;;;;5046612;28;20049;-92
2023/12/18 09:16:53;;;;;;;11.15;9.55;;;;;;;;;;5046260;28;20068;-92
2023/12/18 09:19:20;;;;;;;15.43;10.02;;;;;;;;;;5051497;28;20050;-92
2023/12/18 09:21:48;;;;;;;11.00;9.40;;;;;;;;;;5059545;28;20104;-92
2023/12/18 09:24:15;;;;;;;12.27;9.90;;;;;;;;;;5063082;28;20059;-93
2023/12/18 09:26:42;;;;;;;13.20;10.05;;;;;;;;;;5053255;28;20032;-92
2023/12/18 09:29:10;;;;;;;10.82;8.98;;;;;;;;;;5064553;28;20048;-91
2023/12/18 09:31:37;;;;;;;13.85;11.32;;;;;;;;;;5066045;28;20081;-91
2023/12/18 09:34:04;;;;;;;13.40;9.00;;;;;;;;;;5044202;28;20124;-91
2023/12/18 09:36:32;;;;;;;11.77;9.48;;;;;;;;;;5057842;28;20120;-92
2023/12/18 09:38:59;;;;;;;13.40;9.85;;;;;;;;;;5059250;28;20045;-92
2023/12/18 09:41:26;;;;;;;12.43;9.85;;;;;;;;;;5045271;28;20048;-92
2023/12/18 09:43:54;;;;;;;11.90;9.68;;;;;;;;;;5045291;28;20049;-91
2023/12/18 09:46:22;;;;;;;10.68;9.35;;;;;;;;;;5059482;28;20049;-92
2023/12/18 09:48:54;;;;;;;10.50;9.07;;;;;;;;;;5057799;28;20055;-93
2023/12/18 09:51:22;;;;;;;10.35;8.85;;;;;;;;;;5034871;28;20045;-91
2023/12/18 09:53:50;;;;;;;12.40;9.32;;;;;;;;;;5026784;28;20050;-91
2023/12/18 09:56:18;;;;;;;11.40;8.85;;;;;;;;;;5045055;28;20100;-91
2023/12/18 09:58:46;;;;;;;10.73;8.63;;;;;;;;;;5057964;28;20091;-91
2023/12/18 10:01:14;;;;;;;11.15;7.18;;;;;;;;;;5058712;28;20050;-91
2023/12/18 10:03:42;;;;;;;8.55;7.65;;;;;;;;;;5054647;28;20428;-93
2023/12/18 10:06:10;;;;;;;8.15;6.65;;;;;;;;;;5042129;28;20056;-92
2023/12/18 10:08:37;;;;;;;10.77;7.30;;;;;;;;;;5057579;28;20053;-91
2023/12/18 10:11:05;;;;;;;8.38;7.45;;;;;;;;;;5042184;28;20049;-91
2023/12/18 10:13:35;;;;;;;10.75;8.93;;;;;;;;;;5038150;28;20098;-92
2023/12/18 10:16:02;;;;;;;7.55;6.40;;;;;;;;;;5044677;28;20049;-92
2023/12/18 10:18:29;;;;;;;9.82;8.40;;;;;;;;;;5054974;28;20063;-92
2023/12/18 10:20:57;;;;;;;11.85;8.80;;;;;;;;;;5044315;28;20049;-91
2023/12/18 10:23:24;;;;;;;12.20;8.60;;;;;;;;;;5054086;28;20114;-92
2023/12/18 10:25:52;;;;;;;9.35;7.80;;;;;;;;;;5045507;28;20055;-91
2023/12/18 10:28:19;;;;;;;7.78;7.03;;;;;;;;;;5050297;28;20053;-92
2023/12/18 10:30:46;;;;;;;10.93;7.05;;;;;;;;;;5044490;28;20049;-91
2023/12/18 10:33:13;;;;;;;8.00;6.80;;;;;;;;;;5036241;28;20385;-91
2023/12/18 10:35:41;;;;;;;8.57;7.38;;;;;;;;;;5044690;28;20140;-92
2023/12/18 10:38:09;;;;;;;7.82;7.00;;;;;;;;;;5037015;28;20107;-92
2023/12/18 10:40:37;;;;;;;6.70;5.97;;;;;;;;;;5050151;28;20049;-93
2023/12/18 10:43:15;;;;;;;6.78;6.18;;;;;;;;;;5064292;28;20045;-92
2023/12/18 10:45:43;;;;;;;6.43;5.50;;;;;;;;;;5051434;28;20091;-92
2023/12/18 10:48:10;;;;;;;7.53;6.43;;;;;;;;;;5045030;28;20432;-91
2023/12/18 10:50:38;;;;;;;6.40;5.80;;;;;;;;;;5046743;28;20060;-91
2023/12/18 10:53:09;;;;;;;5.35;4.85;;;;;;;;;;5042748;28;20095;-92
2023/12/18 10:55:37;;;;;;;5.75;4.97;;;;;;;;;;5057598;28;20045;-90
2023/12/18 10:58:05;;;;;;;5.90;5.30;;;;;;;;;;5055481;28;20041;-92
2023/12/18 11:00:33;;;;;;;4.88;4.47;;;;;;;;;;5044392;28;20059;-91
2023/12/18 11:03:01;;;;;;;4.57;4.18;;;;;;;;;;5035356;28;20400;-92
2023/12/18 11:05:29;;;;;;;6.72;5.03;;;;;;;;;;5041202;28;20053;-91
2023/12/18 11:07:57;;;;;;;5.30;4.80;;;;;;;;;;5035942;28;20544;-92
2023/12/18 11:10:25;;;;;;;5.57;5.00;;;;;;;;;;5044808;28;20416;-93
2023/12/18 11:13:02;;;;;;;6.00;5.40;;;;;;;;;;5041541;28;20045;-92
2023/12/18 11:15:35;;;;;;;4.97;4.50;;;;;;;;;;5033883;28;20103;-92
2023/12/18 11:18:16;;;;;;;4.60;4.10;;;;;;;;;;5058072;28;20117;-90
2023/12/18 11:20:46;;;;;;;4.57;4.07;;;;;;;;;;5050102;28;20057;-91
2023/12/18 11:23:16;;;;;;;4.43;4.07;;;;;;;;;;5045297;28;20056;-91
2023/12/18 11:25:48;;;;;;;5.57;4.30;;;;;;;;;;5046186;28;20057;-91
2023/12/18 11:28:20;;;;;;;6.22;4.03;;;;;;;;;;5045969;28;20128;-91
2023/12/18 11:30:47;;;;;;;4.55;4.05;;;;;;;;;;5044970;28;20150;-92
2023/12/18 11:33:15;;;;;;;5.13;3.72;;;;;;;;;;5042066;28;20073;-92
2023/12/18 11:35:49;;;;;;;8.23;4.45;;;;;;;;;;5053019;28;20054;-91
2023/12/18 11:38:19;;;;;;;4.80;4.32;;;;;;;;;;5042908;28;20059;-91
2023/12/18 11:40:49;;;;;;;3.80;3.47;;;;;;;;;;5060404;28;20461;-91
2023/12/18 11:43:36;;;;;;;5.85;3.63;;;;;;;;;;5064414;28;20069;-91
2023/12/18 11:46:07;;;;;;;4.93;4.00;;;;;;;;;;5029315;28;20058;-92
2023/12/18 11:48:46;;;;;;;3.45;3.22;;;;;;;;;;5041967;28;20448;-91
2023/12/18 11:51:15;;;;;;;3.70;3.42;;;;;;;;;;5048656;28;20437;-93
2023/12/18 11:53:44;;;;;;;3.72;3.42;;;;;;;;;;5062816;28;20405;-93
2023/12/18 11:56:12;;;;;;;3.20;2.97;;;;;;;;;;5060424;28;20049;-92
2023/12/18 11:58:43;;;;;;;4.20;3.13;;;;;;;;;;5073892;28;20041;-93
2023/12/18 12:01:13;;;;;;;3.17;2.90;;;;;;;;;;5045434;28;20055;-93
2023/12/18 12:03:41;;;;;;;3.28;3.08;;;;;;;;;;5043269;28;20104;-93
2023/12/18 12:06:09;;;;;;;5.32;3.38;;;;;;;;;;5053822;28;20443;-92
2023/12/18 12:08:48;;;;;;;3.45;3.25;;;;;;;;;;5063257;28;20045;-92
2023/12/18 12:11:16;;;;;;;3.63;3.38;;;;;;;;;;5055230;28;20053;-91
2023/12/18 12:13:45;;;;;;;4.22;3.50;;;;;;;;;;5050664;28;20107;-92
2023/12/18 12:16:16;;;;;;;3.90;3.60;;;;;;;;;;5044970;28;20143;-93
2023/12/18 12:18:47;;;;;;;3.95;3.50;;;;;;;;;;5060193;28;20453;-91
2023/12/18 12:21:16;;;;;;;3.20;2.90;;;;;;;;;;5063568;28;20095;-92
2023/12/18 12:23:47;;;;;;;3.15;2.90;;;;;;;;;;5047751;28;20588;-91
2023/12/18 12:26:16;;;;;;;3.88;3.58;;;;;;;;;;5042251;28;20062;-91
2023/12/18 12:28:43;;;;;;;3.80;3.13;;;;;;;;;;5039968;28;20077;-92
2023/12/18 12:31:11;;;;;;;3.90;3.60;;;;;;;;;;5042455;28;20089;-90
2023/12/18 12:33:48;;;;;;;3.92;3.63;;;;;;;;;;5038359;28;20076;-92
2023/12/18 12:36:21;;;;;;;4.43;2.95;;;;;;;;;;5054372;28;20049;-91
2023/12/18 12:38:49;;;;;;;3.38;3.08;;;;;;;;;;5047138;28;20049;-91
2023/12/18 12:41:16;;;;;;;3.42;3.15;;;;;;;;;;5044894;28;20088;-92
2023/12/18 12:43:44;;;;;;;3.75;2.90;;;;;;;;;;5066630;28;20095;-92
2023/12/18 12:46:12;;;;;;;3.50;3.20;;;;;;;;;;5044279;28;20049;-91
2023/12/18 12:48:46;;;;;;;3.80;3.47;;;;;;;;;;5058688;28;20064;-91
2023/12/18 12:51:14;;;;;;;3.78;3.47;;;;;;;;;;5061360;28;20152;-90
2023/12/18 12:53:42;;;;;;;3.13;2.83;;;;;;;;;;5047450;28;20044;-92
2023/12/18 12:56:10;;;;;;;3.50;3.20;;;;;;;;;;5045526;28;20076;-93
2023/12/18 12:58:38;;;;;;;3.13;2.83;;;;;;;;;;5053518;28;20042;-92
2023/12/18 13:01:06;;;;;;;3.90;3.35;;;;;;;;;;5042774;28;20103;-91
2023/12/18 13:03:35;;;;;;;3.40;3.15;;;;;;;;;;5054231;28;20080;-91
2023/12/18 13:06:03;;;;;;;4.00;3.10;;;;;;;;;;5043415;28;20496;-91
2023/12/18 13:08:30;;;;;;;3.38;3.08;;;;;;;;;;5044442;28;20053;-92
2023/12/18 13:11:00;;;;;;;4.25;3.55;;;;;;;;;;5074624;28;20087;-91
2023/12/18 13:13:28;;;;;;;3.58;3.20;;;;;;;;;;5062632;28;20065;-91
2023/12/18 13:15:56;;;;;;;3.95;3.53;;;;;;;;;;5050929;28;20103;-90
2023/12/18 13:18:23;;;;;;;3.95;3.55;;;;;;;;;;5059059;28;20053;-92
2023/12/18 13:20:50;;;;;;;2.90;2.50;;;;;;;;;;5027643;28;20111;-91
2023/12/18 13:23:18;;;;;;;3.47;3.17;;;;;;;;;;5050869;28;20141;-90
2023/12/18 13:25:45;;;;;;;5.72;3.05;;;;;;;;;;5043489;28;20493;-91
2023/12/18 13:28:12;;;;;;;3.30;3.00;;;;;;;;;;5061630;28;20081;-91
2023/12/18 13:30:39;;;;;;;4.53;3.15;;;;;;;;;;5046594;28;20052;-90
2023/12/18 13:33:07;;;;;;;4.05;2.83;;;;;;;;;;5044675;28;20060;-91
2023/12/18 13:35:34;;;;;;;4.00;3.25;;;;;;;;;;5059251;28;20057;-92
2023/12/18 13:38:01;;;;;;;5.50;3.08;;;;;;;;;;5051308;28;20058;-91
2023/12/18 13:40:29;;;;;;;3.67;3.28;;;;;;;;;;5058867;28;20072;-92
2023/12/18 13:42:56;;;;;;;3.90;3.50;;;;;;;;;;5058834;28;20053;-91
2023/12/18 13:45:23;;;;;;;10.38;4.88;;;;;;;;;;5045906;28;20076;-91
2023/12/18 13:47:51;;;;;;;5.63;4.10;;;;;;;;;;5045513;28;20052;-91
2023/12/18 13:50:18;;;;;;;4.25;3.85;;;;;;;;;;5041979;28;20084;-92
2023/12/18 13:52:48;;;;;;;5.05;3.88;;;;;;;;;;5058854;28;20470;-91
2023/12/18 13:55:15;;;;;;;4.75;3.53;;;;;;;;;;5061579;28;20135;-91
2023/12/18 13:57:43;;;;;;;5.47;4.18;;;;;;;;;;5045824;28;20049;-92
2023/12/18 14:00:15;;;;;;;4.07;3.67;;;;;;;;;;5042601;28;20063;-91
2023/12/18 14:02:43;;;;;;;3.50;3.20;;;;;;;;;;5057862;28;20061;-91
2023/12/18 14:05:10;;;;;;;4.68;3.53;;;;;;;;;;5060119;28;20053;-90
2023/12/18 14:07:38;;;;;;;5.47;3.60;;;;;;;;;;5031285;28;20330;-91
2023/12/18 14:10:07;;;;;;;7.78;4.30;;;;;;;;;;5058507;28;20053;-90
2023/12/18 14:12:35;;;;;;;3.85;3.55;;;;;;;;;;5058027;28;20057;-91
2023/12/18 14:15:03;;;;;;;4.85;3.65;;;;;;;;;;5058008;28;20045;-92
2023/12/18 14:17:32;;;;;;;4.38;3.97;;;;;;;;;;5057663;28;20069;-91
2023/12/18 14:20:03;;;;;;;3.85;3.45;;;;;;;;;;5059018;28;20106;-91
2023/12/18 14:22:32;;;;;;;3.75;3.35;;;;;;;;;;5044823;28;20060;-90
2023/12/18 14:25:00;;;;;;;4.97;3.08;;;;;;;;;;5048338;28;20043;-91
2023/12/18 14:27:28;;;;;;;3.83;3.42;;;;;;;;;;5076947;28;20109;-90
2023/12/18 14:29:56;;;;;;;3.50;3.20;;;;;;;;;;5048852;28;20055;-92
2023/12/18 14:32:23;;;;;;;4.18;3.70;;;;;;;;;;5034416;28;20050;-91
2023/12/18 14:34:51;;;;;;;3.65;3.35;;;;;;;;;;5040824;28;20056;-90
2023/12/18 14:37:18;;;;;;;27.80;19.77;;;;;;;;;;5025122;28;20083;-90
2023/12/18 14:39:46;;;;;;;10.15;8.05;;;;;;;;;;5057811;28;20049;-91